Taos, New Mexico
Current Conditions -  °F | °C
As of 4:15 PM on Monday 22 Dec 2014 (Local Time) from KSKX Reporting Station
Overcast Overcast  
Wind Chill: -8°   Ceiling: 3500
Heat Index: -1°   Visibility: 10mi
Dew Point: -3°   Wind: 18mph
Humidity: 86%   Direction: 350°N
Pressure: 29.69"   Gusts: 24mph
Location:  36.41°N, 105.57°W
Report Text: KSKX 222315Z AUTO 35016G21KT 10SM FEW024 BKN035 OVC046 M01/M03 A2969 RMK AO1
Loading
Personal Weather Stations






























Interactive Weather Map New forecast layout! Learn more

10-Day Weather Forecast

Advertisements
Track Severe Weather on mobile